createdAt,value
2022-10-07T00:01:06.088Z,101578.56
2022-10-07T00:03:34.028Z,101578.75
2022-10-07T00:06:03.928Z,101585.03
2022-10-07T00:08:31.658Z,101576.94
2022-10-07T00:11:08.953Z,101579.94
2022-10-07T00:13:39.006Z,101581.31
2022-10-07T00:16:17.482Z,101581.69
2022-10-07T00:18:45.428Z,101581.31
2022-10-07T00:21:14.905Z,101583.56
2022-10-07T00:23:43.775Z,101586.34
2022-10-07T00:26:13.966Z,101580.19
2022-10-07T00:28:43.532Z,101582.03
2022-10-07T00:31:21.058Z,101584.72
2022-10-07T00:33:49.634Z,101583.09
2022-10-07T00:36:24.899Z,101581.34
2022-10-07T00:38:53.865Z,101576.94
2022-10-07T00:41:23.979Z,101579.63
2022-10-07T00:43:53.474Z,101584.06
2022-10-07T00:46:31.493Z,101576.75
2022-10-07T00:49:07.111Z,101571.50
2022-10-07T00:51:35.095Z,101578.53
2022-10-07T00:54:08.189Z,101569.69
2022-10-07T00:56:35.563Z,101573.22
2022-10-07T00:59:02.828Z,101576.72
2022-10-07T01:01:31.505Z,101569.47
2022-10-07T01:03:58.858Z,101565.63
2022-10-07T01:06:26.411Z,101582.84
2022-10-07T01:08:54.854Z,101576.28
2022-10-07T01:11:59.416Z,101587.94
2022-10-07T01:14:31.065Z,101587.69
2022-10-07T01:17:02.961Z,101593.34
2022-10-07T01:19:39.423Z,101591.16
2022-10-07T01:22:19.932Z,101593.69
2022-10-07T01:24:58.991Z,101592.25
2022-10-07T01:27:27.658Z,101591.00
2022-10-07T01:30:03.303Z,101608.53
2022-10-07T01:32:40.305Z,101594.75
2022-10-07T01:35:19.264Z,101609.44
2022-10-07T01:37:51.022Z,101603.66
2022-10-07T01:40:24.981Z,101604.81
2022-10-07T01:42:53.204Z,101603.38
2022-10-07T01:45:21.856Z,101604.53
2022-10-07T01:47:49.542Z,101596.63
2022-10-07T01:50:18.224Z,101603.38
2022-10-07T01:52:48.652Z,101605.28
2022-10-07T01:55:23.903Z,101604.59
2022-10-07T01:58:07.808Z,101596.91
2022-10-07T02:00:45.005Z,101599.59
2022-10-07T02:03:40.355Z,101599.50
2022-10-07T02:06:20.877Z,101598.34
2022-10-07T02:08:52.082Z,101598.00
2022-10-07T02:11:27.502Z,101594.81
2022-10-07T02:14:12.021Z,101603.78
2022-10-07T02:16:47.239Z,101606.84
2022-10-07T02:19:18.914Z,101604.66
2022-10-07T02:21:49.433Z,101599.72
2022-10-07T02:24:19.458Z,101601.00
2022-10-07T02:26:47.560Z,101599.66
2022-10-07T02:29:16.577Z,101599.06
2022-10-07T02:31:45.219Z,101595.78
2022-10-07T02:34:19.715Z,101600.56
2022-10-07T02:36:51.862Z,101598.16
2022-10-07T02:39:19.242Z,101609.69
2022-10-07T02:41:55.272Z,101608.41
2022-10-07T02:44:33.373Z,101606.38
2022-10-07T02:47:06.574Z,101612.56
2022-10-07T02:49:38.503Z,101609.69
2022-10-07T02:52:08.465Z,101617.66
2022-10-07T02:54:41.473Z,101615.06
2022-10-07T02:57:09.969Z,101625.09
2022-10-07T02:59:38.089Z,101612.38
2022-10-07T03:02:08.774Z,101622.06
2022-10-07T03:04:36.505Z,101620.72
2022-10-07T03:07:03.978Z,101614.03
2022-10-07T03:09:31.949Z,101626.16
2022-10-07T03:12:02.494Z,101623.16
2022-10-07T03:14:34.017Z,101622.66
2022-10-07T03:17:02.417Z,101627.75
2022-10-07T03:19:32.795Z,101619.13
2022-10-07T03:22:00.215Z,101623.88
2022-10-07T03:24:27.467Z,101618.16
2022-10-07T03:26:54.837Z,101626.91
2022-10-07T03:29:22.245Z,101619.88
2022-10-07T03:31:49.532Z,101614.59
2022-10-07T03:34:17.913Z,101615.56
2022-10-07T03:36:45.525Z,101618.47
2022-10-07T03:39:12.907Z,101622.78
2022-10-07T03:41:41.348Z,101626.38
2022-10-07T03:44:11.031Z,101630.78
2022-10-07T03:46:38.493Z,101631.66
2022-10-07T03:49:05.997Z,101638.78
2022-10-07T03:51:33.639Z,101648.03
2022-10-07T03:54:01.189Z,101652.38
2022-10-07T03:56:28.615Z,101639.53
2022-10-07T03:58:55.919Z,101645.38
2022-10-07T04:01:23.723Z,101652.09
2022-10-07T04:03:52.630Z,101655.56
2022-10-07T04:06:20.111Z,101634.72
2022-10-07T04:08:57.449Z,101646.66
2022-10-07T04:11:28.364Z,101641.81
2022-10-07T04:14:00.869Z,101648.00
2022-10-07T04:16:28.623Z,101653.16
2022-10-07T04:18:56.638Z,101641.94
2022-10-07T04:21:24.739Z,101641.47
2022-10-07T04:23:52.072Z,101638.28
2022-10-07T04:26:19.572Z,101650.03
2022-10-07T04:28:49.326Z,101653.38
2022-10-07T04:31:16.894Z,101649.66
2022-10-07T04:33:44.477Z,101654.00
2022-10-07T04:36:13.013Z,101655.63
2022-10-07T04:38:42.731Z,101657.63
2022-10-07T04:41:10.327Z,101647.44
2022-10-07T04:43:37.909Z,101651.41
2022-10-07T04:46:13.769Z,101648.78
2022-10-07T04:48:48.690Z,101651.34
2022-10-07T04:51:16.203Z,101652.09
2022-10-07T04:53:43.655Z,101670.44
2022-10-07T04:56:11.418Z,101660.56
2022-10-07T04:58:38.887Z,101670.00
2022-10-07T05:01:09.284Z,101664.09
2022-10-07T05:03:42.092Z,101659.84
2022-10-07T05:06:13.497Z,101668.06
2022-10-07T05:08:43.293Z,101669.41
2022-10-07T05:11:11.281Z,101681.84
2022-10-07T05:13:39.283Z,101671.25
2022-10-07T05:16:09.852Z,101685.09
2022-10-07T05:18:39.833Z,101685.16
2022-10-07T05:21:09.416Z,101690.88
2022-10-07T05:23:37.312Z,101695.56
2022-10-07T05:26:08.234Z,101694.00
2022-10-07T05:28:37.879Z,101695.03
2022-10-07T05:31:10.538Z,101690.56
2022-10-07T05:33:39.931Z,101699.34
2022-10-07T05:36:08.694Z,101709.72
2022-10-07T05:38:36.953Z,101696.63
2022-10-07T05:41:07.245Z,101700.47
2022-10-07T05:43:39.788Z,101701.09
2022-10-07T05:46:10.290Z,101702.94
2022-10-07T05:48:40.421Z,101700.34
2022-10-07T05:51:11.494Z,101708.75
2022-10-07T05:53:41.397Z,101710.34
2022-10-07T05:56:12.221Z,101718.84
2022-10-07T05:58:40.060Z,101724.03
2022-10-07T06:01:13.888Z,101719.97
2022-10-07T06:03:44.296Z,101725.63
2022-10-07T06:06:15.205Z,101724.16
2022-10-07T06:08:42.576Z,101730.44
2022-10-07T06:11:30.024Z,101731.78
2022-10-07T06:13:58.891Z,101734.28
2022-10-07T06:16:26.658Z,101726.00
2022-10-07T06:18:54.749Z,101731.44
2022-10-07T06:21:25.915Z,101746.72
2022-10-07T06:23:54.240Z,101745.38
2022-10-07T06:26:22.282Z,101749.69
2022-10-07T06:28:50.106Z,101753.88
2022-10-07T06:31:24.722Z,101752.66
2022-10-07T06:33:52.479Z,101753.28
2022-10-07T06:36:20.014Z,101756.84
2022-10-07T06:38:48.748Z,101752.19
2022-10-07T06:41:18.109Z,101755.88
2022-10-07T06:43:45.679Z,101767.84
2022-10-07T06:46:15.061Z,101758.69
2022-10-07T06:48:43.055Z,101763.66
2022-10-07T06:51:14.268Z,101755.88
2022-10-07T06:53:41.872Z,101770.94
2022-10-07T06:56:12.585Z,101767.13
2022-10-07T06:58:40.177Z,101759.34
2022-10-07T07:01:07.539Z,101759.34
2022-10-07T07:03:35.463Z,101767.22
2022-10-07T07:06:02.919Z,101753.16
2022-10-07T07:08:32.027Z,101761.28
2022-10-07T07:11:30.121Z,101758.13
2022-10-07T07:13:58.100Z,101753.53
2022-10-07T07:16:25.712Z,101760.56
2022-10-07T07:18:54.367Z,101754.50
2022-10-07T07:21:22.433Z,101747.97
2022-10-07T07:23:51.348Z,101754.03
2022-10-07T07:26:20.423Z,101753.41
2022-10-07T07:28:56.980Z,101754.88
2022-10-07T07:31:25.151Z,101752.78
2022-10-07T07:33:52.794Z,101750.06
2022-10-07T07:36:23.563Z,101753.50
2022-10-07T07:39:00.014Z,101757.69
2022-10-07T07:41:30.927Z,101758.91
2022-10-07T07:43:59.879Z,101744.06
2022-10-07T07:46:32.489Z,101743.53
2022-10-07T07:49:03.272Z,101738.31
2022-10-07T07:51:31.921Z,101745.09
2022-10-07T07:54:00.000Z,101742.13
2022-10-07T07:56:29.252Z,101740.34
2022-10-07T07:58:56.808Z,101747.25
2022-10-07T08:01:24.162Z,101736.69
2022-10-07T08:03:51.861Z,101743.84
2022-10-07T08:06:20.921Z,101738.16
2022-10-07T08:08:57.361Z,101736.88
2022-10-07T08:11:26.101Z,101734.28
2022-10-07T08:13:55.336Z,101726.44
2022-10-07T08:16:24.516Z,101724.94
2022-10-07T08:18:55.426Z,101724.38
2022-10-07T08:21:27.806Z,101718.41
2022-10-07T08:23:57.470Z,101721.19
2022-10-07T08:26:26.193Z,101728.06
2022-10-07T08:28:53.474Z,101730.97
2022-10-07T08:31:21.008Z,101725.41
2022-10-07T08:33:49.734Z,101733.34
2022-10-07T08:36:19.367Z,101725.34
2022-10-07T08:38:49.489Z,101719.25
2022-10-07T08:41:38.469Z,101729.19
2022-10-07T08:44:17.797Z,101727.75
2022-10-07T08:46:51.475Z,101727.59
2022-10-07T08:49:24.926Z,101726.47
2022-10-07T08:51:59.055Z,101720.59
2022-10-07T08:54:28.196Z,101718.56
2022-10-07T08:56:59.270Z,101719.00
2022-10-07T08:59:32.714Z,101718.47
2022-10-07T09:02:29.913Z,101728.50
2022-10-07T09:05:27.015Z,101720.50
2022-10-07T09:08:02.830Z,101719.03
2022-10-07T09:10:50.039Z,101729.41
2022-10-07T09:13:23.264Z,101719.22
2022-10-07T09:15:53.277Z,101723.66
2022-10-07T09:18:24.895Z,101731.41
2022-10-07T09:20:54.582Z,101719.50
2022-10-07T09:23:31.297Z,101727.84
2022-10-07T09:25:58.512Z,101714.06
2022-10-07T09:28:31.076Z,101715.34
2022-10-07T09:30:59.958Z,101704.13
2022-10-07T09:33:29.855Z,101709.44
2022-10-07T09:36:05.036Z,101712.03
2022-10-07T09:38:44.347Z,101715.88
2022-10-07T09:41:31.389Z,101705.25
2022-10-07T09:44:11.242Z,101709.53
2022-10-07T09:46:58.018Z,101714.66
2022-10-07T09:49:29.082Z,101709.16
2022-10-07T09:52:14.505Z,101714.91
2022-10-07T09:54:42.751Z,101714.69
2022-10-07T09:57:23.955Z,101700.47
2022-10-07T09:59:52.254Z,101705.63
2022-10-07T10:02:23.346Z,101694.38
2022-10-07T10:04:56.130Z,101701.38
2022-10-07T10:07:29.162Z,101696.38
2022-10-07T10:10:17.863Z,101696.19
2022-10-07T10:12:47.956Z,101683.91
2022-10-07T10:15:28.753Z,101683.91
2022-10-07T10:17:57.455Z,101684.00
2022-10-07T10:20:30.157Z,101684.75
2022-10-07T10:22:59.335Z,101686.00
2022-10-07T10:25:55.282Z,101687.00
2022-10-07T10:28:46.514Z,101689.84
2022-10-07T10:31:46.445Z,101686.53
2022-10-07T10:34:52.849Z,101681.75
2022-10-07T10:37:34.984Z,101684.00
2022-10-07T10:40:40.262Z,101676.56
2022-10-07T10:43:25.535Z,101681.25
2022-10-07T10:46:17.556Z,101680.63
2022-10-07T10:48:50.065Z,101676.53
2022-10-07T10:51:44.095Z,101666.50
2022-10-07T10:54:20.602Z,101671.75
2022-10-07T10:56:51.931Z,101658.34
2022-10-07T10:59:30.041Z,101665.84
2022-10-07T11:02:34.785Z,101665.66
2022-10-07T11:05:13.997Z,101658.53
2022-10-07T11:08:04.888Z,101654.13
2022-10-07T11:10:36.144Z,101654.38
2022-10-07T11:13:24.176Z,101651.28
2022-10-07T11:16:06.207Z,101660.63
2022-10-07T11:18:46.080Z,101651.03
2022-10-07T11:21:19.362Z,101645.72
2022-10-07T11:23:55.349Z,101654.91
2022-10-07T11:26:37.596Z,101654.88
2022-10-07T11:29:18.188Z,101652.53
2022-10-07T11:31:54.714Z,101656.41
2022-10-07T11:34:28.706Z,101659.91
2022-10-07T11:37:20.896Z,101663.69
2022-10-07T11:39:50.298Z,101653.69
2022-10-07T11:42:27.909Z,101655.03
2022-10-07T11:45:03.766Z,101657.69
2022-10-07T11:47:38.682Z,101659.56
2022-10-07T11:50:25.784Z,101655.34
2022-10-07T11:52:57.442Z,101656.59
2022-10-07T11:55:28.353Z,101653.13
2022-10-07T11:58:00.281Z,101647.75
2022-10-07T12:00:30.488Z,101652.34
2022-10-07T12:03:18.799Z,101654.75
2022-10-07T12:05:49.825Z,101654.63
2022-10-07T12:08:35.111Z,101655.88
2022-10-07T12:11:15.195Z,101649.72
2022-10-07T12:13:43.967Z,101653.78
2022-10-07T12:16:34.222Z,101655.66
2022-10-07T12:19:06.677Z,101648.94
2022-10-07T12:21:59.621Z,101652.75
2022-10-07T12:24:28.716Z,101648.75
2022-10-07T12:27:07.790Z,101642.06
2022-10-07T12:29:48.690Z,101649.66
2022-10-07T12:32:47.027Z,101661.22
2022-10-07T12:35:29.694Z,101654.06
2022-10-07T12:38:16.741Z,101652.19
2022-10-07T12:40:58.579Z,101649.44
2022-10-07T12:43:34.535Z,101646.97
2022-10-07T12:46:05.637Z,101648.69
2022-10-07T12:48:42.666Z,101661.19
2022-10-07T12:51:19.883Z,101655.44
2022-10-07T12:53:48.752Z,101653.41
2022-10-07T12:56:26.288Z,101653.00
2022-10-07T12:59:26.459Z,101653.84
2022-10-07T13:02:31.665Z,101656.47
2022-10-07T13:05:05.685Z,101656.97
2022-10-07T13:07:59.084Z,101645.06
2022-10-07T13:11:00.585Z,101637.25
2022-10-07T13:13:38.704Z,101642.16
2022-10-07T13:16:22.411Z,101641.91
2022-10-07T13:18:58.029Z,101646.97
2022-10-07T13:21:36.648Z,101640.91
2022-10-07T13:24:04.013Z,101637.78
2022-10-07T13:26:33.379Z,101642.41
2022-10-07T13:29:01.336Z,101640.81
2022-10-07T13:31:30.995Z,101635.25
2022-10-07T13:33:59.639Z,101650.53
2022-10-07T13:36:32.509Z,101651.47
2022-10-07T13:39:11.188Z,101644.28
2022-10-07T13:41:42.582Z,101643.16
2022-10-07T13:44:14.384Z,101642.31
2022-10-07T13:46:54.231Z,101636.56
2022-10-07T13:49:26.251Z,101636.28
2022-10-07T13:51:56.419Z,101629.06
2022-10-07T13:54:26.556Z,101639.00
2022-10-07T13:56:54.116Z,101636.28
2022-10-07T13:59:22.084Z,101634.53
2022-10-07T14:01:52.334Z,101626.66
2022-10-07T14:04:21.812Z,101636.84
2022-10-07T14:07:12.545Z,101633.56
2022-10-07T14:09:47.942Z,101630.28
2022-10-07T14:12:35.514Z,101634.59
2022-10-07T14:15:14.445Z,101632.31
2022-10-07T14:17:47.153Z,101626.59
2022-10-07T14:20:19.086Z,101633.34
2022-10-07T14:22:53.464Z,101623.75
2022-10-07T14:25:28.007Z,101627.47
2022-10-07T14:27:58.940Z,101633.66
2022-10-07T14:30:55.772Z,101637.97
2022-10-07T14:33:59.001Z,101639.84
2022-10-07T14:36:26.824Z,101634.53
2022-10-07T14:38:56.170Z,101633.38
2022-10-07T14:41:29.308Z,101637.56
2022-10-07T14:44:00.412Z,101635.53
2022-10-07T14:46:28.409Z,101639.13
2022-10-07T14:48:56.363Z,101644.25
2022-10-07T14:51:27.059Z,101639.53
2022-10-07T14:54:02.269Z,101643.78
2022-10-07T14:56:32.289Z,101640.63
2022-10-07T14:58:59.753Z,101643.03
2022-10-07T15:01:29.681Z,101640.88
2022-10-07T15:03:57.907Z,101639.84
2022-10-07T15:06:25.410Z,101643.84
2022-10-07T15:08:53.722Z,101654.56
2022-10-07T15:11:23.180Z,101645.50
2022-10-07T15:13:50.850Z,101652.50
2022-10-07T15:16:21.198Z,101651.31
2022-10-07T15:18:54.999Z,101649.72
2022-10-07T15:21:22.825Z,101649.41
2022-10-07T15:23:52.104Z,101652.66
2022-10-07T15:26:23.446Z,101652.47
2022-10-07T15:28:56.464Z,101654.09
2022-10-07T15:31:27.978Z,101656.22
2022-10-07T15:33:57.820Z,101655.31
2022-10-07T15:36:29.239Z,101658.44
2022-10-07T15:39:06.135Z,101661.53
2022-10-07T15:41:39.532Z,101656.25
2022-10-07T15:44:16.282Z,101653.78
2022-10-07T15:46:45.982Z,101660.47
2022-10-07T15:49:14.513Z,101668.75
2022-10-07T15:51:42.616Z,101668.28
2022-10-07T15:54:10.728Z,101671.78
2022-10-07T15:56:38.280Z,101667.16
2022-10-07T15:59:05.534Z,101673.06
2022-10-07T16:01:33.062Z,101676.06
2022-10-07T16:04:04.325Z,101675.47
2022-10-07T16:06:34.565Z,101673.38
2022-10-07T16:09:05.343Z,101673.03
2022-10-07T16:11:34.229Z,101684.41
2022-10-07T16:14:02.153Z,101682.78
2022-10-07T16:16:32.438Z,101682.28
2022-10-07T16:19:00.647Z,101689.97
2022-10-07T16:21:30.389Z,101684.16
2022-10-07T16:24:01.324Z,101679.38
2022-10-07T16:26:30.471Z,101689.88
2022-10-07T16:29:17.904Z,101683.09
2022-10-07T16:31:46.921Z,101682.09
2022-10-07T16:34:16.409Z,101689.13
2022-10-07T16:36:47.869Z,101689.00
2022-10-07T16:39:17.772Z,101684.44
2022-10-07T16:41:46.275Z,101695.41
2022-10-07T16:44:14.774Z,101686.16
2022-10-07T16:46:42.689Z,101694.03
2022-10-07T16:49:16.184Z,101697.84
2022-10-07T16:51:44.784Z,101695.25
2022-10-07T16:54:15.955Z,101692.13
2022-10-07T16:56:49.909Z,101698.06
2022-10-07T16:59:23.187Z,101697.03
2022-10-07T17:01:56.004Z,101703.13
2022-10-07T17:04:24.492Z,101697.09
2022-10-07T17:06:52.580Z,101696.22
2022-10-07T17:09:21.982Z,101696.47
2022-10-07T17:11:49.460Z,101693.50
2022-10-07T17:14:19.235Z,101694.56
2022-10-07T17:16:56.880Z,101707.38
2022-10-07T17:19:26.594Z,101698.84
2022-10-07T17:21:54.685Z,101697.50
2022-10-07T17:24:23.305Z,101697.06
2022-10-07T17:26:55.455Z,101707.66
2022-10-07T17:29:26.111Z,101701.38
2022-10-07T17:31:54.008Z,101706.28
2022-10-07T17:34:21.531Z,101700.00
2022-10-07T17:36:50.197Z,101706.41
2022-10-07T17:39:19.464Z,101717.09
2022-10-07T17:41:47.058Z,101715.38
2022-10-07T17:44:14.834Z,101711.34
2022-10-07T17:46:42.152Z,101711.34
2022-10-07T17:49:13.262Z,101704.31
2022-10-07T17:51:42.722Z,101705.41
2022-10-07T17:54:12.495Z,101701.97
2022-10-07T17:56:40.519Z,101704.41
2022-10-07T17:59:09.415Z,101703.56
2022-10-07T18:01:36.958Z,101700.34
2022-10-07T18:04:06.194Z,101703.28
2022-10-07T18:06:36.341Z,101703.53
2022-10-07T18:09:08.187Z,101703.00
2022-10-07T18:11:55.805Z,101706.81
2022-10-07T18:14:41.897Z,101711.81
2022-10-07T18:17:10.407Z,101712.16
2022-10-07T18:19:41.926Z,101711.66
2022-10-07T18:22:10.122Z,101706.66
2022-10-07T18:24:39.270Z,101708.13
2022-10-07T18:27:06.489Z,101705.63
2022-10-07T18:29:38.893Z,101702.41
2022-10-07T18:32:07.099Z,101704.34
2022-10-07T18:34:34.724Z,101709.25
2022-10-07T18:37:02.089Z,101703.31
2022-10-07T18:39:29.939Z,101710.06
2022-10-07T18:42:01.028Z,101716.75
2022-10-07T18:44:29.235Z,101721.81
2022-10-07T18:46:57.115Z,101717.50
2022-10-07T18:49:24.834Z,101717.06
2022-10-07T18:51:53.132Z,101721.84
2022-10-07T18:54:21.199Z,101719.47
2022-10-07T18:56:50.420Z,101725.53
2022-10-07T18:59:18.917Z,101722.28
2022-10-07T19:01:50.406Z,101719.91
2022-10-07T19:04:20.025Z,101711.81
2022-10-07T19:06:48.092Z,101717.09
2022-10-07T19:09:21.414Z,101718.94
2022-10-07T19:11:51.456Z,101713.41
2022-10-07T19:14:19.375Z,101713.66
2022-10-07T19:16:49.433Z,101719.91
2022-10-07T19:19:24.191Z,101717.97
2022-10-07T19:21:54.299Z,101729.09
2022-10-07T19:24:42.157Z,101721.09
2022-10-07T19:27:09.400Z,101720.25
2022-10-07T19:29:36.675Z,101714.28
2022-10-07T19:32:08.012Z,101722.63
2022-10-07T19:34:36.752Z,101721.09
2022-10-07T19:37:04.069Z,101726.72
2022-10-07T19:39:31.415Z,101728.03
2022-10-07T19:41:59.993Z,101723.28
2022-10-07T19:44:27.319Z,101731.66
2022-10-07T19:46:54.524Z,101727.25
2022-10-07T19:49:22.375Z,101726.25
2022-10-07T19:51:49.707Z,101729.09
2022-10-07T19:54:17.020Z,101729.09
2022-10-07T19:56:47.218Z,101740.09
2022-10-07T19:59:16.974Z,101729.53
2022-10-07T20:01:49.677Z,101730.59
2022-10-07T20:04:20.706Z,101728.31
2022-10-07T20:06:48.871Z,101732.19
2022-10-07T20:09:18.842Z,101734.91
2022-10-07T20:11:53.183Z,101738.13
2022-10-07T20:14:20.525Z,101738.31
2022-10-07T20:16:48.422Z,101745.88
2022-10-07T20:19:18.724Z,101748.03
2022-10-07T20:21:47.610Z,101738.41
2022-10-07T20:24:16.281Z,101746.41
2022-10-07T20:26:44.263Z,101738.06
2022-10-07T20:29:12.085Z,101745.75
2022-10-07T20:31:41.420Z,101745.28
2022-10-07T20:34:12.733Z,101748.41
2022-10-07T20:36:41.403Z,101744.19
2022-10-07T20:39:32.724Z,101745.22
2022-10-07T20:42:21.065Z,101753.44
2022-10-07T20:44:49.286Z,101748.44
2022-10-07T20:47:19.663Z,101747.69
2022-10-07T20:49:48.816Z,101744.31
2022-10-07T20:52:20.907Z,101749.13
2022-10-07T20:54:49.121Z,101750.50
2022-10-07T20:57:21.418Z,101762.84
2022-10-07T20:59:49.297Z,101757.84
2022-10-07T21:02:18.687Z,101758.69
2022-10-07T21:04:49.014Z,101764.19
2022-10-07T21:07:17.564Z,101763.34
2022-10-07T21:09:45.143Z,101765.25
2022-10-07T21:12:15.068Z,101760.66
2022-10-07T21:14:43.159Z,101757.94
2022-10-07T21:17:11.771Z,101764.50
2022-10-07T21:19:39.154Z,101761.69
2022-10-07T21:22:07.120Z,101764.38
2022-10-07T21:24:38.015Z,101766.16
2022-10-07T21:27:07.119Z,101764.88
2022-10-07T21:29:40.144Z,101762.19
2022-10-07T21:32:11.481Z,101755.34
2022-10-07T21:34:38.892Z,101760.25
2022-10-07T21:37:06.693Z,101752.75
2022-10-07T21:39:34.615Z,101756.59
2022-10-07T21:42:02.112Z,101758.91
2022-10-07T21:44:33.254Z,101756.69
2022-10-07T21:47:01.882Z,101753.72
2022-10-07T21:49:30.794Z,101751.47
2022-10-07T21:51:58.750Z,101752.81
2022-10-07T21:54:30.450Z,101753.19
2022-10-07T21:56:58.039Z,101753.44
2022-10-07T21:59:28.108Z,101754.38
2022-10-07T22:01:55.762Z,101748.97
2022-10-07T22:04:23.324Z,101750.91
2022-10-07T22:07:09.637Z,101756.59
2022-10-07T22:09:37.280Z,101759.06
2022-10-07T22:12:04.635Z,101754.03
2022-10-07T22:14:32.384Z,101768.66
2022-10-07T22:16:59.891Z,101767.44
2022-10-07T22:19:27.982Z,101763.56
2022-10-07T22:21:57.080Z,101760.44
2022-10-07T22:24:24.555Z,101751.94
2022-10-07T22:26:51.930Z,101756.03
2022-10-07T22:29:19.839Z,101766.22
2022-10-07T22:31:47.306Z,101762.13
2022-10-07T22:34:33.346Z,101766.72
2022-10-07T22:37:01.527Z,101763.09
2022-10-07T22:39:29.247Z,101770.28
2022-10-07T22:41:57.770Z,101762.47
2022-10-07T22:44:30.498Z,101758.66
2022-10-07T22:47:02.342Z,101757.25
2022-10-07T22:49:30.408Z,101765.56
2022-10-07T22:52:00.616Z,101762.53
2022-10-07T22:54:28.273Z,101761.03
2022-10-07T22:57:00.626Z,101760.53
2022-10-07T22:59:28.199Z,101755.31
2022-10-07T23:01:55.349Z,101757.13
2022-10-07T23:04:22.549Z,101756.50
2022-10-07T23:06:49.810Z,101757.63
2022-10-07T23:09:17.113Z,101751.66
2022-10-07T23:11:44.731Z,101753.66
2022-10-07T23:14:12.714Z,101747.59
2022-10-07T23:16:44.298Z,101754.97
2022-10-07T23:19:11.695Z,101752.41
2022-10-07T23:21:38.914Z,101747.19
2022-10-07T23:24:10.833Z,101750.94
2022-10-07T23:26:38.454Z,101749.28
2022-10-07T23:29:07.643Z,101744.06
2022-10-07T23:31:38.434Z,101740.59
2022-10-07T23:34:06.564Z,101742.56
2022-10-07T23:36:36.864Z,101742.66
2022-10-07T23:39:04.532Z,101734.75
2022-10-07T23:41:32.350Z,101736.63
2022-10-07T23:44:02.085Z,101735.00
2022-10-07T23:46:33.170Z,101741.88
2022-10-07T23:49:01.026Z,101733.81
2022-10-07T23:51:29.008Z,101733.91
2022-10-07T23:53:56.682Z,101733.91
2022-10-07T23:56:24.096Z,101731.25
2022-10-07T23:58:51.910Z,101726.09
